This is the latest recevied weather packets stored in our database for station/object CA3DPI. If no packets are shown the sender has not sent any weather packets the latest 10 day(s).
| Time | Temp. | Humidity | Pressure | Rain* | Wind** | Luminosity | Snow |
|---|---|---|---|---|---|---|---|
| 1777738615 | 31.11° C | 34% | 1019.1 hPa | - | - | - | - |
| 1777738015 | 29.44° C | 37% | 1019.4 hPa | - | - | - | - |
| 1777737415 | 28.89° C | 38% | 1019.5 hPa | - | - | - | - |
| 1777736815 | 27.78° C | 38% | 1019.6 hPa | - | - | - | - |
| 1777736215 | 27.22° C | 39% | 1019.8 hPa | - | - | - | - |
| 1777735615 | 26.11° C | 41% | 1019.9 hPa | - | - | - | - |
| 1777735014 | 25° C | 42% | 1020 hPa | - | - | - | - |
| 1777734414 | 24.44° C | 42% | 1020.1 hPa | - | - | - | - |
| 1777733814 | 23.89° C | 42% | 1020.1 hPa | - | - | - | - |
| 1777733213 | 22.78° C | 43% | 1020.3 hPa | - | - | - | - |
| 1777732636 | 22.22° C | 44% | 1020.3 hPa | - | - | - | - |
| 1777730219 | 20° C | 44% | 1020.8 hPa | - | - | - | - |
| 1777729618 | 19.44° C | 46% | 1020.8 hPa | - | - | - | - |
| 1777729018 | 19.44° C | 45% | 1020.9 hPa | - | - | - | - |
| 1777728418 | 17.78° C | 49% | 1021 hPa | - | - | - | - |
| 1777727818 | 16.67° C | 50% | 1021.1 hPa | - | - | - | - |
| 1777727218 | 16.11° C | 49% | 1021.1 hPa | - | - | - | - |
| 1777726618 | 16.11° C | 49% | 1021.1 hPa | - | - | - | - |
| 1777726017 | 14.44° C | 50% | 1021.1 hPa | - | - | - | - |
| 1777725417 | 13.33° C | 50% | 1020.9 hPa | - | - | - | - |
| 1777724816 | 12.22° C | 52% | 1021.1 hPa | - | - | - | - |
| 1777724216 | 11.67° C | 52% | 1021.1 hPa | - | - | - | - |
| 1777723616 | 11.67° C | 56% | 1021.1 hPa | - | - | - | - |
| 1777723016 | 10.56° C | 53% | 1021.1 hPa | - | - | - | - |
| 1777722416 | 10.56° C | 54% | 1021 hPa | - | - | - | - |
* Rain since midnight (hover to see other rain measurements)
** Current wind speed in m/s (hover to see current wind gust speed)